createdAt,value
2017-10-20T00:01:42.012Z,11.30
2017-10-20T00:04:14.878Z,11.43
2017-10-20T00:06:46.435Z,9.60
2017-10-20T00:09:18.351Z,11.90
2017-10-20T00:11:50.775Z,10.60
2017-10-20T00:14:22.274Z,9.77
2017-10-20T00:16:53.892Z,10.20
2017-10-20T00:19:25.325Z,10.63
2017-10-20T00:21:57.161Z,9.80
2017-10-20T00:24:28.768Z,11.63
2017-10-20T00:27:00.050Z,9.10
2017-10-20T00:29:31.348Z,9.00
2017-10-20T00:32:05.197Z,8.20
2017-10-20T00:34:36.407Z,7.60
2017-10-20T00:37:07.847Z,10.17
2017-10-20T00:39:38.977Z,11.27
2017-10-20T00:42:10.877Z,12.43
2017-10-20T00:44:42.431Z,9.33
2017-10-20T00:47:15.076Z,11.33
2017-10-20T00:49:46.500Z,10.40
2017-10-20T00:52:19.070Z,10.93
2017-10-20T00:54:50.196Z,12.13
2017-10-20T00:57:23.968Z,12.50
2017-10-20T00:59:55.121Z,11.70
2017-10-20T01:02:26.539Z,14.07
2017-10-20T01:04:57.882Z,12.53
2017-10-20T01:07:28.995Z,13.77
2017-10-20T01:10:00.408Z,12.60
2017-10-20T01:12:31.506Z,12.67
2017-10-20T01:15:04.742Z,12.93
2017-10-20T01:17:38.098Z,12.43
2017-10-20T01:20:10.568Z,11.00
2017-10-20T01:22:41.763Z,10.63
2017-10-20T01:25:14.447Z,9.90
2017-10-20T01:27:45.627Z,10.67
2017-10-20T01:30:16.803Z,12.60
2017-10-20T01:32:48.306Z,15.20
2017-10-20T01:35:19.562Z,12.87
2017-10-20T01:37:51.024Z,14.43
2017-10-20T01:40:22.220Z,14.80
2017-10-20T01:42:53.398Z,15.53
2017-10-20T01:45:25.145Z,13.13
2017-10-20T01:47:56.344Z,12.73
2017-10-20T01:50:28.263Z,13.57
2017-10-20T01:52:59.719Z,10.90
2017-10-20T01:55:31.180Z,11.00
2017-10-20T01:58:03.838Z,10.47
2017-10-20T02:00:34.944Z,10.67
2017-10-20T02:03:06.087Z,12.30
2017-10-20T02:05:37.503Z,11.47
2017-10-20T02:08:09.250Z,10.93
2017-10-20T02:10:40.362Z,10.77
2017-10-20T02:13:13.461Z,10.93
2017-10-20T02:15:44.947Z,11.57
2017-10-20T02:18:16.356Z,10.50
2017-10-20T02:20:47.476Z,10.23
2017-10-20T02:23:18.580Z,11.10
2017-10-20T02:25:50.174Z,9.83
2017-10-20T02:28:21.288Z,10.73
2017-10-20T02:30:52.639Z,9.83
2017-10-20T02:33:25.196Z,9.97
2017-10-20T02:35:56.527Z,9.70
2017-10-20T02:38:28.467Z,10.33
2017-10-20T02:41:02.055Z,9.70
2017-10-20T02:43:33.220Z,9.67
2017-10-20T02:46:05.834Z,11.33
2017-10-20T02:48:41.275Z,10.40
2017-10-20T02:51:14.014Z,11.33
2017-10-20T02:53:45.155Z,11.73
2017-10-20T02:56:19.379Z,12.07
2017-10-20T02:58:50.585Z,11.17
2017-10-20T03:01:22.277Z,10.90
2017-10-20T03:03:53.919Z,11.17
2017-10-20T03:06:25.471Z,10.97
2017-10-20T03:08:56.835Z,9.13
2017-10-20T03:11:28.477Z,10.60
2017-10-20T03:13:59.567Z,9.60
2017-10-20T03:16:31.263Z,10.50
2017-10-20T03:19:02.643Z,10.87
2017-10-20T03:21:33.904Z,11.23
2017-10-20T03:24:05.755Z,9.90
2017-10-20T03:26:37.436Z,11.63
2017-10-20T03:29:08.732Z,11.57
2017-10-20T03:31:40.121Z,11.03
2017-10-20T03:34:13.760Z,11.90
2017-10-20T03:36:45.153Z,12.40
2017-10-20T03:39:16.249Z,12.03
2017-10-20T03:41:47.427Z,12.80
2017-10-20T03:44:19.897Z,12.87
2017-10-20T03:46:51.468Z,12.03
2017-10-20T03:49:22.835Z,12.40
2017-10-20T03:51:55.303Z,11.93
2017-10-20T03:54:26.931Z,11.50
2017-10-20T03:56:58.495Z,12.47
2017-10-20T03:59:29.741Z,12.63
2017-10-20T04:02:02.723Z,12.80
2017-10-20T04:04:34.219Z,13.90
2017-10-20T04:07:05.599Z,13.00
2017-10-20T04:09:36.998Z,12.97
2017-10-20T04:12:09.223Z,13.03
2017-10-20T04:14:41.386Z,13.97
2017-10-20T04:17:14.581Z,13.10
2017-10-20T04:19:49.710Z,13.13
2017-10-20T04:22:22.980Z,13.87
2017-10-20T04:24:54.110Z,12.10
2017-10-20T04:27:27.246Z,12.30
2017-10-20T04:29:58.439Z,11.60
2017-10-20T04:32:29.563Z,13.10
2017-10-20T04:35:01.198Z,12.23
2017-10-20T04:37:32.711Z,13.73
2017-10-20T04:40:05.422Z,13.20
2017-10-20T04:42:36.940Z,14.20
2017-10-20T04:45:08.024Z,11.37
2017-10-20T04:47:39.754Z,13.97
2017-10-20T04:50:11.868Z,14.00
2017-10-20T04:52:43.146Z,14.30
2017-10-20T04:55:15.868Z,14.37
2017-10-20T04:57:47.086Z,14.47
2017-10-20T05:00:18.772Z,14.10
2017-10-20T05:02:50.166Z,14.77
2017-10-20T05:05:21.324Z,14.70
2017-10-20T05:07:52.896Z,15.90
2017-10-20T05:10:24.424Z,13.60
2017-10-20T05:12:55.673Z,14.30
2017-10-20T05:15:27.488Z,14.70
2017-10-20T05:17:59.357Z,13.70
2017-10-20T05:20:30.803Z,15.13
2017-10-20T05:23:02.794Z,14.07
2017-10-20T05:25:34.416Z,13.30
2017-10-20T05:28:06.449Z,13.67
2017-10-20T05:30:37.638Z,12.27
2017-10-20T05:33:09.679Z,11.83
2017-10-20T05:35:42.323Z,14.37
2017-10-20T05:38:15.116Z,13.37
2017-10-20T05:40:46.700Z,13.80
2017-10-20T05:43:18.263Z,14.23
2017-10-20T05:45:49.425Z,13.20
2017-10-20T05:48:21.118Z,12.07
2017-10-20T05:50:52.326Z,15.20
2017-10-20T05:53:23.468Z,12.50
2017-10-20T05:55:55.951Z,12.43
2017-10-20T05:58:27.904Z,11.50
2017-10-20T06:00:59.089Z,11.93
2017-10-20T06:03:30.436Z,12.73
2017-10-20T06:06:02.650Z,12.50
2017-10-20T06:08:33.839Z,11.40
2017-10-20T06:11:05.519Z,12.30
2017-10-20T06:13:36.601Z,10.90
2017-10-20T06:16:07.784Z,11.40
2017-10-20T06:18:39.559Z,11.37
2017-10-20T06:21:13.713Z,10.27
2017-10-20T06:23:46.091Z,11.37
2017-10-20T06:26:18.496Z,10.70
2017-10-20T06:28:49.872Z,11.47
2017-10-20T06:31:21.083Z,10.87
2017-10-20T06:33:53.553Z,9.50
2017-10-20T06:36:25.014Z,10.67
2017-10-20T06:38:56.237Z,12.43
2017-10-20T06:41:27.750Z,11.40
2017-10-20T06:43:59.049Z,11.80
2017-10-20T06:46:30.162Z,11.80
2017-10-20T06:49:03.245Z,11.60
2017-10-20T06:51:34.545Z,12.27
2017-10-20T06:54:06.869Z,10.77
2017-10-20T06:56:38.399Z,12.57
2017-10-20T06:59:11.422Z,11.97
2017-10-20T07:01:42.637Z,12.73
2017-10-20T07:04:15.642Z,10.70
2017-10-20T07:06:46.824Z,10.60
2017-10-20T07:09:18.107Z,10.27
2017-10-20T07:11:49.653Z,10.53
2017-10-20T07:14:21.352Z,11.43
2017-10-20T07:16:52.683Z,8.97
2017-10-20T07:19:25.496Z,11.17
2017-10-20T07:21:58.094Z,9.80
2017-10-20T07:24:30.203Z,11.10
2017-10-20T07:27:06.075Z,10.73
2017-10-20T07:29:37.394Z,10.00
2017-10-20T07:32:10.901Z,9.40
2017-10-20T07:34:42.500Z,11.40
2017-10-20T07:37:16.154Z,9.80
2017-10-20T07:39:47.538Z,9.10
2017-10-20T07:42:18.825Z,9.83
2017-10-20T07:44:50.075Z,7.90
2017-10-20T07:47:21.468Z,10.77
2017-10-20T07:49:53.768Z,10.67
2017-10-20T07:52:25.174Z,9.67
2017-10-20T07:54:57.666Z,9.90
2017-10-20T07:57:29.083Z,10.93
2017-10-20T08:00:00.194Z,9.07
2017-10-20T08:02:31.360Z,10.17
2017-10-20T08:05:04.561Z,9.70
2017-10-20T08:07:36.825Z,11.03
2017-10-20T08:10:08.785Z,10.60
2017-10-20T08:12:40.374Z,9.20
2017-10-20T08:15:17.139Z,9.83
2017-10-20T08:17:50.098Z,9.20
2017-10-20T08:20:21.750Z,10.50
2017-10-20T08:22:53.119Z,10.10
2017-10-20T08:25:24.500Z,9.40
2017-10-20T08:27:55.957Z,8.80
2017-10-20T08:30:27.584Z,9.83
2017-10-20T08:32:59.190Z,8.77
2017-10-20T08:35:30.580Z,9.20
2017-10-20T08:38:03.656Z,8.77
2017-10-20T08:40:36.063Z,9.00
2017-10-20T08:43:09.323Z,9.17
2017-10-20T08:45:43.161Z,10.57
2017-10-20T08:48:16.487Z,8.87
2017-10-20T08:50:49.032Z,10.37
2017-10-20T08:53:20.773Z,7.80
2017-10-20T08:55:52.076Z,9.93
2017-10-20T08:58:23.989Z,8.20
2017-10-20T09:00:55.510Z,7.87
2017-10-20T09:03:27.056Z,9.40
2017-10-20T09:05:59.269Z,7.37
2017-10-20T09:08:30.738Z,9.13
2017-10-20T09:11:02.489Z,7.40
2017-10-20T09:13:38.395Z,8.33
2017-10-20T09:16:21.863Z,8.37
2017-10-20T09:18:55.121Z,9.20
2017-10-20T09:21:26.788Z,7.90
2017-10-20T09:23:58.867Z,9.70
2017-10-20T09:26:30.505Z,8.20
2017-10-20T09:29:02.976Z,8.40
2017-10-20T09:31:35.512Z,8.17
2017-10-20T09:34:08.098Z,7.80
2017-10-20T09:36:42.934Z,8.17
2017-10-20T09:39:14.320Z,7.43
2017-10-20T09:41:46.870Z,8.00
2017-10-20T09:47:32.259Z,7.53
2017-10-20T09:50:18.126Z,8.10
2017-10-20T09:53:07.204Z,8.10
2017-10-20T09:55:38.779Z,7.23
2017-10-20T09:58:10.256Z,8.20
2017-10-20T10:03:05.782Z,7.47
2017-10-20T10:05:37.169Z,7.17
2017-10-20T10:08:09.350Z,6.30
2017-10-20T10:10:41.581Z,6.33
2017-10-20T10:13:13.085Z,6.70
2017-10-20T10:15:46.960Z,6.00
2017-10-20T10:18:18.472Z,5.60
2017-10-20T10:20:50.222Z,6.37
2017-10-20T10:23:21.744Z,4.93
2017-10-20T10:25:53.354Z,4.80
2017-10-20T10:28:25.138Z,4.23
2017-10-20T10:30:56.662Z,4.80
2017-10-20T10:33:28.286Z,3.20
2017-10-20T10:35:59.749Z,3.73
2017-10-20T10:38:31.252Z,4.10
2017-10-20T10:41:04.491Z,4.23
2017-10-20T10:43:35.972Z,3.80
2017-10-20T10:46:16.602Z,3.67
2017-10-20T10:48:49.305Z,4.23
2017-10-20T10:51:21.155Z,4.30
2017-10-20T10:53:52.610Z,3.50
2017-10-20T10:56:24.161Z,3.50
2017-10-20T10:58:55.945Z,2.90
2017-10-20T11:01:27.998Z,3.27
2017-10-20T11:03:59.664Z,3.20
2017-10-20T11:09:46.567Z,3.20
2017-10-20T11:12:58.029Z,4.20
2017-10-20T11:15:29.783Z,4.00
2017-10-20T11:18:01.832Z,4.00
2017-10-20T11:20:34.173Z,4.40
2017-10-20T11:23:05.607Z,4.73
2017-10-20T11:25:37.630Z,3.70
2017-10-20T11:28:09.748Z,4.97
2017-10-20T11:30:41.493Z,4.60
2017-10-20T11:33:13.309Z,5.60
2017-10-20T11:35:46.648Z,4.93
2017-10-20T11:38:18.147Z,5.10
2017-10-20T11:40:50.457Z,5.93
2017-10-20T11:43:22.065Z,7.23
2017-10-20T11:45:53.775Z,5.30
2017-10-20T11:48:25.044Z,3.70
2017-10-20T11:50:56.491Z,3.50
2017-10-20T11:53:28.211Z,2.90
2017-10-20T11:56:00.689Z,3.33
2017-10-20T11:58:32.322Z,2.63
2017-10-20T12:01:04.366Z,2.23
2017-10-20T12:03:36.858Z,2.20
2017-10-20T12:06:08.811Z,2.40
2017-10-20T12:08:41.310Z,2.37
2017-10-20T12:11:12.870Z,1.77
2017-10-20T12:13:45.163Z,1.90
2017-10-20T12:16:16.898Z,2.10
2017-10-20T12:18:50.691Z,1.80
2017-10-20T12:21:22.048Z,1.43
2017-10-20T12:23:53.312Z,1.27
2017-10-20T12:26:25.055Z,1.30
2017-10-20T12:28:56.394Z,1.40
2017-10-20T12:31:28.074Z,1.93
2017-10-20T12:33:59.580Z,1.37
2017-10-20T12:36:30.969Z,1.20
2017-10-20T12:39:03.200Z,0.87
2017-10-20T12:41:35.192Z,0.73
2017-10-20T12:44:07.703Z,0.60
2017-10-20T12:46:39.744Z,0.80
2017-10-20T12:49:11.572Z,0.53
2017-10-20T12:51:46.765Z,0.90
2017-10-20T12:54:18.089Z,0.80
2017-10-20T12:56:49.903Z,0.60
2017-10-20T12:59:21.307Z,0.67
2017-10-20T13:04:34.671Z,0.83
2017-10-20T13:07:06.124Z,0.70
2017-10-20T13:09:37.929Z,0.80
2017-10-20T13:12:09.331Z,0.60
2017-10-20T13:14:43.410Z,1.30
2017-10-20T13:20:04.633Z,1.00
2017-10-20T13:22:35.997Z,0.67
2017-10-20T13:25:07.359Z,0.60
2017-10-20T13:27:39.310Z,0.77
2017-10-20T13:30:10.610Z,0.60
2017-10-20T13:32:41.998Z,0.60
2017-10-20T13:35:20.259Z,0.80
2017-10-20T13:37:51.976Z,0.60
2017-10-20T13:40:23.816Z,1.10
2017-10-20T13:42:55.290Z,0.70
2017-10-20T13:45:26.915Z,0.50
2017-10-20T13:47:58.311Z,0.80
2017-10-20T13:50:29.731Z,1.00
2017-10-20T13:53:02.349Z,0.63
2017-10-20T13:55:33.849Z,0.60
2017-10-20T13:58:06.869Z,0.60
2017-10-20T14:00:39.440Z,1.10
2017-10-20T14:03:11.072Z,0.80
2017-10-20T14:05:44.441Z,0.80
2017-10-20T14:08:15.874Z,0.90
2017-10-20T14:10:50.141Z,0.63
2017-10-20T14:13:21.524Z,0.70
2017-10-20T14:15:52.893Z,0.80
2017-10-20T14:18:24.591Z,0.80
2017-10-20T14:20:56.200Z,0.73
2017-10-20T14:23:28.380Z,0.80
2017-10-20T14:25:59.980Z,0.90
2017-10-20T14:28:31.854Z,0.60
2017-10-20T14:31:13.591Z,0.60
2017-10-20T14:33:54.303Z,0.73
2017-10-20T14:39:13.188Z,1.07
2017-10-20T14:44:50.012Z,0.50
2017-10-20T14:47:25.984Z,0.90
2017-10-20T14:49:59.369Z,0.60
2017-10-20T14:52:31.997Z,0.83
2017-10-20T14:55:04.571Z,0.80
2017-10-20T14:57:35.915Z,0.93
2017-10-20T15:00:08.020Z,0.90
2017-10-20T15:02:46.234Z,0.83
2017-10-20T15:05:17.923Z,1.27
2017-10-20T15:07:51.316Z,1.97
2017-10-20T15:10:23.695Z,1.00
2017-10-20T15:12:56.396Z,0.90
2017-10-20T15:15:33.177Z,1.17
2017-10-20T15:18:12.331Z,0.97
2017-10-20T15:23:59.063Z,0.97
2017-10-20T15:26:39.262Z,1.07
2017-10-20T15:29:13.955Z,1.17
2017-10-20T15:34:35.691Z,0.90
2017-10-20T15:40:12.906Z,1.40
2017-10-20T15:42:44.272Z,1.20
2017-10-20T15:45:15.645Z,1.23
2017-10-20T15:47:50.002Z,0.97
2017-10-20T15:50:24.649Z,0.80
2017-10-20T15:56:00.402Z,0.80
2017-10-20T16:04:44.604Z,1.30
2017-10-20T16:07:22.592Z,1.37
2017-10-20T16:09:58.858Z,1.73
2017-10-20T16:15:40.737Z,8.60
2017-10-20T16:18:23.661Z,1.20
2017-10-20T16:23:57.775Z,1.27
2017-10-20T16:29:35.874Z,0.90
2017-10-20T16:32:10.090Z,1.40
2017-10-20T16:34:41.480Z,1.33
2017-10-20T16:37:12.817Z,1.30
2017-10-20T16:39:44.132Z,1.47
2017-10-20T16:42:15.610Z,1.43
2017-10-20T16:44:46.986Z,1.30
2017-10-20T16:47:18.330Z,1.50
2017-10-20T16:49:49.965Z,0.83
2017-10-20T16:55:30.050Z,1.90
2017-10-20T16:58:08.011Z,1.80
2017-10-20T17:00:40.577Z,2.30
2017-10-20T17:03:17.356Z,1.00
2017-10-20T17:08:43.388Z,2.57
2017-10-20T17:11:15.932Z,1.70
2017-10-20T17:13:47.682Z,2.43
2017-10-20T17:19:25.976Z,1.60
2017-10-20T17:22:09.433Z,15.90
2017-10-20T17:24:55.219Z,12.40
2017-10-20T17:27:38.349Z,2.43
2017-10-20T17:36:11.726Z,1.47
2017-10-20T17:38:42.923Z,1.67
2017-10-20T17:41:15.379Z,1.57
2017-10-20T17:43:48.527Z,2.10
2017-10-20T17:46:19.836Z,2.57
2017-10-20T17:48:55.218Z,1.70
2017-10-20T17:51:36.368Z,1.50
2017-10-20T17:57:37.652Z,2.03
2017-10-20T18:03:17.135Z,1.90
2017-10-20T18:05:50.452Z,1.90
2017-10-20T18:11:26.914Z,2.13
2017-10-20T18:14:08.237Z,1.97
2017-10-20T18:16:47.349Z,1.97
2017-10-20T18:19:25.052Z,1.90
2017-10-20T18:22:02.638Z,1.53
2017-10-20T18:24:45.354Z,1.70
2017-10-20T18:32:55.841Z,1.83
2017-10-20T18:35:27.266Z,1.90
2017-10-20T18:37:58.615Z,1.77
2017-10-20T18:40:29.988Z,1.80
2017-10-20T18:43:01.758Z,1.70
2017-10-20T18:45:33.915Z,1.67
2017-10-20T18:48:08.328Z,2.90
2017-10-20T18:50:39.683Z,2.70
2017-10-20T18:53:11.053Z,2.63
2017-10-20T18:55:42.389Z,2.67
2017-10-20T18:58:15.911Z,2.40
2017-10-20T19:00:47.435Z,3.00
2017-10-20T19:03:19.527Z,2.63
2017-10-20T19:05:51.575Z,2.47
2017-10-20T19:08:24.277Z,2.40
2017-10-20T19:10:55.659Z,3.70
2017-10-20T19:13:27.048Z,2.40
2017-10-20T19:15:58.436Z,2.43
2017-10-20T19:18:29.839Z,3.20
2017-10-20T19:21:02.155Z,2.20
2017-10-20T19:23:37.523Z,2.87
2017-10-20T19:26:10.701Z,3.60
2017-10-20T19:28:45.101Z,2.10
2017-10-20T19:34:03.955Z,2.93
2017-10-20T19:36:35.675Z,2.57
2017-10-20T19:39:10.070Z,2.50
2017-10-20T19:41:42.761Z,2.70
2017-10-20T19:44:17.049Z,37.20
2017-10-20T19:46:50.268Z,5.10
2017-10-20T19:49:23.576Z,3.00
2017-10-20T19:51:57.937Z,1.83
2017-10-20T19:54:32.208Z,1.40
2017-10-20T19:57:04.289Z,2.03
2017-10-20T19:59:38.639Z,2.00
2017-10-20T20:02:12.541Z,1.73
2017-10-20T20:04:45.291Z,1.90
2017-10-20T20:07:17.095Z,1.80
2017-10-20T20:09:48.689Z,1.50
2017-10-20T20:12:23.936Z,2.80
2017-10-20T20:14:56.421Z,1.70
2017-10-20T20:17:32.529Z,2.17
2017-10-20T20:20:13.821Z,1.80
2017-10-20T20:22:45.978Z,2.40
2017-10-20T20:25:18.121Z,1.97
2017-10-20T20:27:50.187Z,1.90
2017-10-20T20:30:24.045Z,2.00
2017-10-20T20:32:58.939Z,2.40
2017-10-20T20:35:33.565Z,1.57
2017-10-20T20:38:09.475Z,1.40
2017-10-20T20:40:44.538Z,1.63
2017-10-20T20:43:16.752Z,1.70
2017-10-20T20:45:49.421Z,2.10
2017-10-20T20:48:22.466Z,1.70
2017-10-20T20:50:56.320Z,2.30
2017-10-20T20:53:31.793Z,1.73
2017-10-20T20:56:08.613Z,1.70
2017-10-20T20:58:41.215Z,50.67
2017-10-20T21:01:14.204Z,1.93
2017-10-20T21:03:46.209Z,2.07
2017-10-20T21:09:32.657Z,2.13
2017-10-20T21:12:09.788Z,1.80
2017-10-20T21:14:52.690Z,1.90
2017-10-20T21:17:45.663Z,3.13
2017-10-20T21:20:20.073Z,2.00
2017-10-20T21:22:53.185Z,1.93
2017-10-20T21:25:24.704Z,1.80
2017-10-20T21:27:59.993Z,2.17
2017-10-20T21:30:32.496Z,1.40
2017-10-20T21:33:06.273Z,2.03
2017-10-20T21:38:38.083Z,2.00
2017-10-20T21:44:15.836Z,2.03
2017-10-20T21:46:49.308Z,2.23
2017-10-20T21:49:25.256Z,3.00
2017-10-20T21:51:58.112Z,3.67
2017-10-20T21:54:29.994Z,3.87
2017-10-20T21:57:03.056Z,2.47
2017-10-20T21:59:34.764Z,2.40
2017-10-20T22:02:20.547Z,2.70
2017-10-20T22:04:52.130Z,3.10
2017-10-20T22:07:26.129Z,4.63
2017-10-20T22:09:57.846Z,6.87
2017-10-20T22:12:30.214Z,8.30
2017-10-20T22:15:05.036Z,9.90
2017-10-20T22:17:37.204Z,6.60
2017-10-20T22:20:08.738Z,7.70
2017-10-20T22:22:40.301Z,7.07
2017-10-20T22:25:13.041Z,7.03
2017-10-20T22:27:44.861Z,5.63
2017-10-20T22:30:16.466Z,4.53
2017-10-20T22:32:49.733Z,4.50
2017-10-20T22:35:23.293Z,5.07
2017-10-20T22:37:54.842Z,4.17
2017-10-20T22:40:27.673Z,4.37
2017-10-20T22:42:59.238Z,3.90
2017-10-20T22:45:31.255Z,2.93
2017-10-20T22:48:04.007Z,2.90
2017-10-20T22:50:35.556Z,3.73
2017-10-20T22:53:06.960Z,2.63
2017-10-20T22:55:38.354Z,3.20
2017-10-20T22:58:10.275Z,2.97
2017-10-20T23:00:43.779Z,2.17
2017-10-20T23:03:15.135Z,2.23
2017-10-20T23:05:46.886Z,2.40
2017-10-20T23:08:18.876Z,2.53
2017-10-20T23:10:50.225Z,2.73
2017-10-20T23:13:24.268Z,2.50
2017-10-20T23:15:55.973Z,2.67
2017-10-20T23:18:27.864Z,10.03
2017-10-20T23:20:59.832Z,2.80
2017-10-20T23:23:32.685Z,2.97
2017-10-20T23:26:05.430Z,2.00
2017-10-20T23:28:36.892Z,1.93
2017-10-20T23:31:10.044Z,1.90
2017-10-20T23:33:41.548Z,2.50
2017-10-20T23:36:14.900Z,1.60
2017-10-20T23:38:46.251Z,1.50
2017-10-20T23:41:17.619Z,1.47
2017-10-20T23:43:49.144Z,1.40
2017-10-20T23:46:26.530Z,1.63
2017-10-20T23:48:57.936Z,2.23
2017-10-20T23:51:29.606Z,1.57
2017-10-20T23:54:01.474Z,2.20
2017-10-20T23:56:34.291Z,3.40
2017-10-20T23:59:06.723Z,2.67
